createdAt,value
2022-08-26T00:01:56.974Z,22.40
2022-08-26T00:04:26.356Z,22.40
2022-08-26T00:06:56.431Z,22.40
2022-08-26T00:09:25.192Z,22.40
2022-08-26T00:11:53.425Z,22.30
2022-08-26T00:14:21.890Z,22.40
2022-08-26T00:16:49.655Z,22.40
2022-08-26T00:19:17.974Z,22.40
2022-08-26T00:21:46.095Z,22.40
2022-08-26T00:24:15.176Z,22.40
2022-08-26T00:26:43.728Z,22.40
2022-08-26T00:29:13.225Z,22.40
2022-08-26T00:31:41.744Z,22.40
2022-08-26T00:34:11.166Z,22.40
2022-08-26T00:36:39.687Z,22.50
2022-08-26T00:39:08.710Z,22.40
2022-08-26T00:41:39.809Z,22.40
2022-08-26T00:44:08.410Z,22.40
2022-08-26T00:46:46.845Z,22.30
2022-08-26T00:49:19.485Z,22.30
2022-08-26T00:51:51.061Z,22.20
2022-08-26T00:54:22.049Z,22.20
2022-08-26T00:56:56.005Z,22.10
2022-08-26T00:59:24.882Z,22.10
2022-08-26T01:01:53.260Z,22.00
2022-08-26T01:04:23.540Z,22.00
2022-08-26T01:06:55.141Z,22.00
2022-08-26T01:09:24.123Z,22.00
2022-08-26T01:11:58.437Z,22.00
2022-08-26T01:14:30.443Z,22.00
2022-08-26T01:16:58.364Z,22.00
2022-08-26T01:19:30.389Z,22.00
2022-08-26T01:22:02.407Z,22.00
2022-08-26T01:24:32.489Z,22.00
2022-08-26T01:27:05.010Z,22.00
2022-08-26T01:29:34.810Z,22.00
2022-08-26T01:32:05.003Z,21.90
2022-08-26T01:34:36.035Z,21.90
2022-08-26T01:37:07.805Z,21.90
2022-08-26T01:39:41.748Z,21.80
2022-08-26T01:42:12.125Z,21.80
2022-08-26T01:44:45.877Z,21.80
2022-08-26T01:47:16.604Z,21.80
2022-08-26T01:49:49.062Z,21.70
2022-08-26T01:52:28.083Z,21.70
2022-08-26T01:54:59.944Z,21.60
2022-08-26T01:57:28.609Z,21.60
2022-08-26T01:59:59.604Z,21.60
2022-08-26T02:02:29.117Z,21.60
2022-08-26T02:05:00.230Z,21.50
2022-08-26T02:07:28.980Z,21.50
2022-08-26T02:09:58.118Z,21.50
2022-08-26T02:12:26.789Z,21.50
2022-08-26T02:14:59.118Z,21.40
2022-08-26T02:20:19.089Z,21.40
2022-08-26T02:22:48.045Z,21.40
2022-08-26T02:25:24.025Z,21.30
2022-08-26T02:27:53.041Z,21.40
2022-08-26T02:30:24.015Z,21.40
2022-08-26T02:32:54.913Z,21.40
2022-08-26T02:35:28.377Z,21.40
2022-08-26T02:37:58.851Z,21.40
2022-08-26T02:40:36.652Z,21.30
2022-08-26T02:43:08.467Z,21.30
2022-08-26T02:45:37.124Z,21.30
2022-08-26T02:48:12.149Z,21.30
2022-08-26T02:50:40.403Z,21.30
2022-08-26T02:53:11.060Z,21.20
2022-08-26T02:55:42.436Z,21.20
2022-08-26T02:58:12.010Z,21.20
2022-08-26T03:00:52.836Z,21.10
2022-08-26T03:03:23.446Z,21.10
2022-08-26T03:05:52.161Z,21.10
2022-08-26T03:08:20.440Z,21.00
2022-08-26T03:10:50.111Z,21.10
2022-08-26T03:13:18.621Z,21.10
2022-08-26T03:15:47.628Z,21.20
2022-08-26T03:18:16.253Z,21.30
2022-08-26T03:20:44.253Z,21.30
2022-08-26T03:23:12.616Z,21.30
2022-08-26T03:25:40.553Z,21.30
2022-08-26T03:28:09.928Z,21.30
2022-08-26T03:30:45.425Z,21.30
2022-08-26T03:33:15.312Z,21.30
2022-08-26T03:35:45.130Z,21.20
2022-08-26T03:38:13.099Z,21.20
2022-08-26T03:40:42.528Z,21.10
2022-08-26T03:43:16.065Z,21.10
2022-08-26T03:45:44.253Z,21.00
2022-08-26T03:48:13.948Z,21.00
2022-08-26T03:50:43.465Z,21.00
2022-08-26T03:53:12.767Z,20.90
2022-08-26T03:55:41.384Z,20.80
2022-08-26T03:58:09.557Z,20.80
2022-08-26T04:00:42.914Z,20.80
2022-08-26T04:03:14.727Z,20.80
2022-08-26T04:05:52.769Z,20.70
2022-08-26T04:08:21.695Z,20.70
2022-08-26T04:10:49.842Z,20.70
2022-08-26T04:13:19.473Z,20.70
2022-08-26T04:15:48.937Z,20.60
2022-08-26T04:18:17.858Z,20.70
2022-08-26T04:20:47.409Z,20.70
2022-08-26T04:23:16.880Z,20.60
2022-08-26T04:25:45.695Z,20.60
2022-08-26T04:28:14.894Z,20.60
2022-08-26T04:30:45.738Z,20.60
2022-08-26T04:33:33.767Z,20.60
2022-08-26T04:36:05.106Z,20.60
2022-08-26T04:46:49.959Z,20.60
2022-08-26T04:52:46.549Z,20.60
2022-08-26T04:55:15.119Z,20.60
2022-08-26T04:57:44.186Z,20.60
2022-08-26T05:00:13.370Z,20.60
2022-08-26T05:02:42.086Z,20.70
2022-08-26T05:05:11.274Z,20.70
2022-08-26T05:07:39.173Z,20.70
2022-08-26T05:10:11.331Z,20.80
2022-08-26T05:12:39.234Z,20.80
2022-08-26T05:15:10.294Z,20.90
2022-08-26T05:17:38.221Z,20.90
2022-08-26T05:20:07.072Z,21.00
2022-08-26T05:22:35.050Z,21.00
2022-08-26T05:25:03.329Z,21.10
2022-08-26T05:27:32.468Z,21.10
2022-08-26T05:30:00.637Z,21.20
2022-08-26T05:32:28.969Z,21.20
2022-08-26T05:34:57.096Z,21.30
2022-08-26T05:37:26.475Z,21.40
2022-08-26T05:39:54.330Z,21.40
2022-08-26T05:42:22.112Z,21.50
2022-08-26T05:44:56.070Z,21.60
2022-08-26T05:47:24.658Z,21.60
2022-08-26T05:49:52.613Z,21.70
2022-08-26T05:52:21.062Z,21.70
2022-08-26T05:54:52.686Z,21.80
2022-08-26T05:57:20.656Z,21.80
2022-08-26T05:59:51.632Z,21.80
2022-08-26T06:02:24.309Z,21.90
2022-08-26T06:04:52.124Z,21.90
2022-08-26T06:07:40.831Z,22.00
2022-08-26T06:10:31.625Z,22.00
2022-08-26T06:13:04.575Z,22.10
2022-08-26T06:15:42.831Z,22.10
2022-08-26T06:18:15.484Z,22.20
2022-08-26T06:20:58.018Z,22.20
2022-08-26T06:23:48.462Z,22.30
2022-08-26T06:26:20.509Z,22.40
2022-08-26T06:28:48.461Z,22.50
2022-08-26T06:31:19.279Z,22.60
2022-08-26T06:33:48.813Z,22.70
2022-08-26T06:36:19.483Z,22.70
2022-08-26T06:38:48.949Z,22.90
2022-08-26T06:41:17.935Z,23.00
2022-08-26T06:43:45.956Z,23.10
2022-08-26T06:46:17.239Z,23.20
2022-08-26T06:48:47.242Z,23.30
2022-08-26T06:51:22.325Z,23.50
2022-08-26T06:53:54.195Z,23.70
2022-08-26T06:56:25.574Z,23.80
2022-08-26T06:58:57.409Z,23.90
2022-08-26T07:01:27.635Z,24.00
2022-08-26T07:03:57.982Z,24.10
2022-08-26T07:06:29.092Z,24.10
2022-08-26T07:09:03.934Z,24.10
2022-08-26T07:11:33.704Z,24.10
2022-08-26T07:14:02.402Z,24.10
2022-08-26T07:16:31.133Z,24.20
2022-08-26T07:18:59.513Z,24.20
2022-08-26T07:21:30.529Z,24.20
2022-08-26T07:24:01.202Z,24.30
2022-08-26T07:26:31.519Z,24.30
2022-08-26T07:29:01.194Z,24.30
2022-08-26T07:31:36.102Z,24.40
2022-08-26T07:34:09.221Z,24.40
2022-08-26T07:36:42.658Z,24.50
2022-08-26T07:39:10.468Z,24.50
2022-08-26T07:41:38.436Z,24.60
2022-08-26T07:44:08.633Z,24.70
2022-08-26T07:46:37.975Z,24.80
2022-08-26T07:49:06.235Z,24.90
2022-08-26T07:51:35.449Z,25.00
2022-08-26T07:54:06.905Z,25.10
2022-08-26T07:56:35.245Z,25.30
2022-08-26T07:59:13.734Z,25.40
2022-08-26T08:01:45.060Z,25.50
2022-08-26T08:04:13.891Z,25.70
2022-08-26T08:06:43.986Z,25.80
2022-08-26T08:09:14.784Z,26.00
2022-08-26T08:11:44.674Z,26.20
2022-08-26T08:14:12.838Z,26.40
2022-08-26T08:16:45.861Z,26.50
2022-08-26T08:19:15.056Z,26.60
2022-08-26T08:21:43.318Z,26.80
2022-08-26T08:24:11.807Z,26.90
2022-08-26T08:26:41.323Z,27.20
2022-08-26T08:29:09.514Z,27.40
2022-08-26T08:31:56.908Z,27.40
2022-08-26T08:34:26.920Z,27.50
2022-08-26T08:36:55.214Z,27.50
2022-08-26T08:39:23.804Z,27.50
2022-08-26T08:42:13.159Z,27.60
2022-08-26T08:44:45.454Z,27.60
2022-08-26T08:47:30.421Z,27.60
2022-08-26T08:50:05.455Z,27.70
2022-08-26T08:52:36.464Z,27.80
2022-08-26T08:55:11.037Z,27.90
2022-08-26T08:57:54.079Z,28.00
2022-08-26T09:00:30.204Z,28.00
2022-08-26T09:03:02.005Z,28.10
2022-08-26T09:05:34.869Z,28.10
2022-08-26T09:08:06.743Z,28.20
2022-08-26T09:10:40.390Z,28.30
2022-08-26T09:13:16.813Z,28.30
2022-08-26T09:15:57.365Z,28.30
2022-08-26T09:18:55.793Z,28.40
2022-08-26T09:21:25.771Z,28.40
2022-08-26T09:23:56.791Z,28.50
2022-08-26T09:26:30.666Z,28.40
2022-08-26T09:29:03.875Z,28.50
2022-08-26T09:31:34.062Z,28.50
2022-08-26T09:34:17.544Z,28.50
2022-08-26T09:36:48.809Z,28.50
2022-08-26T09:39:29.565Z,28.50
2022-08-26T09:42:07.141Z,28.50
2022-08-26T09:44:51.884Z,28.50
2022-08-26T09:47:24.045Z,28.50
2022-08-26T09:50:00.742Z,28.60
2022-08-26T09:52:30.011Z,28.60
2022-08-26T09:55:11.350Z,28.60
2022-08-26T09:57:47.212Z,28.60
2022-08-26T10:00:29.581Z,28.60
2022-08-26T10:02:59.091Z,28.70
2022-08-26T10:05:35.832Z,28.70
2022-08-26T10:08:24.794Z,28.70
2022-08-26T10:10:53.715Z,28.60
2022-08-26T10:13:29.549Z,28.60
2022-08-26T10:16:05.673Z,28.60
2022-08-26T10:18:39.843Z,28.70
2022-08-26T10:21:12.362Z,28.80
2022-08-26T10:23:45.097Z,28.90
2022-08-26T10:26:17.358Z,29.00
2022-08-26T10:29:01.399Z,29.10
2022-08-26T10:31:38.249Z,29.20
2022-08-26T10:34:09.204Z,29.20
2022-08-26T10:37:14.481Z,29.30
2022-08-26T10:39:56.836Z,29.30
2022-08-26T10:42:31.084Z,29.30
2022-08-26T10:45:06.757Z,29.30
2022-08-26T10:47:46.689Z,29.30
2022-08-26T10:50:18.126Z,29.40
2022-08-26T10:52:58.529Z,29.50
2022-08-26T10:55:34.775Z,29.50
2022-08-26T10:58:26.207Z,29.50
2022-08-26T11:01:17.853Z,29.50
2022-08-26T11:04:00.262Z,29.50
2022-08-26T11:06:29.939Z,29.40
2022-08-26T11:08:59.592Z,29.40
2022-08-26T11:11:50.034Z,29.50
2022-08-26T11:14:46.220Z,29.60
2022-08-26T11:17:56.274Z,29.50
2022-08-26T11:20:41.589Z,29.60
2022-08-26T11:23:38.070Z,29.60
2022-08-26T11:26:36.161Z,29.50
2022-08-26T11:29:12.873Z,29.40
2022-08-26T11:31:56.722Z,29.30
2022-08-26T11:34:53.125Z,29.20
2022-08-26T11:37:27.287Z,29.20
2022-08-26T11:39:56.894Z,29.10
2022-08-26T11:42:34.301Z,29.00
2022-08-26T11:45:14.133Z,29.00
2022-08-26T11:47:42.232Z,29.10
2022-08-26T11:50:13.138Z,29.10
2022-08-26T11:52:42.271Z,29.20
2022-08-26T11:55:12.211Z,29.30
2022-08-26T11:57:45.646Z,29.40
2022-08-26T12:00:22.322Z,29.50
2022-08-26T12:02:51.313Z,29.50
2022-08-26T12:05:24.680Z,29.60
2022-08-26T12:07:56.327Z,29.60
2022-08-26T12:10:32.750Z,29.70
2022-08-26T12:13:03.673Z,29.70
2022-08-26T12:15:33.958Z,29.70
2022-08-26T12:18:28.912Z,29.80
2022-08-26T12:21:00.076Z,29.80
2022-08-26T12:23:40.757Z,29.80
2022-08-26T12:26:11.272Z,29.90
2022-08-26T12:28:44.618Z,29.90
2022-08-26T12:31:12.624Z,29.80
2022-08-26T12:33:45.350Z,29.80
2022-08-26T12:36:13.413Z,29.80
2022-08-26T12:38:42.619Z,29.80
2022-08-26T12:41:10.412Z,29.90
2022-08-26T12:43:42.570Z,29.90
2022-08-26T12:46:13.133Z,30.00
2022-08-26T12:48:44.132Z,30.00
2022-08-26T12:51:22.250Z,30.00
2022-08-26T12:53:51.780Z,29.90
2022-08-26T12:56:26.415Z,29.90
2022-08-26T12:59:19.273Z,29.70
2022-08-26T13:01:48.620Z,29.70
2022-08-26T13:04:36.536Z,29.60
2022-08-26T13:07:16.663Z,29.60
2022-08-26T13:09:45.777Z,29.60
2022-08-26T13:12:23.442Z,29.60
2022-08-26T13:14:51.478Z,29.60
2022-08-26T13:17:19.239Z,29.50
2022-08-26T13:19:47.023Z,29.50
2022-08-26T13:22:24.091Z,29.50
2022-08-26T13:24:55.728Z,29.50
2022-08-26T13:27:26.125Z,29.50
2022-08-26T13:29:54.213Z,29.40
2022-08-26T13:32:22.556Z,29.30
2022-08-26T13:34:56.022Z,29.30
2022-08-26T13:37:24.508Z,29.30
2022-08-26T13:40:06.709Z,29.30
2022-08-26T13:42:34.729Z,29.30
2022-08-26T13:45:02.861Z,29.20
2022-08-26T13:47:30.919Z,29.20
2022-08-26T13:49:58.819Z,29.20
2022-08-26T13:52:30.156Z,29.30
2022-08-26T13:54:59.253Z,29.30
2022-08-26T13:57:29.820Z,29.30
2022-08-26T13:59:59.030Z,29.30
2022-08-26T14:02:27.463Z,29.20
2022-08-26T14:04:55.899Z,29.20
2022-08-26T14:07:24.300Z,29.10
2022-08-26T14:09:52.099Z,29.00
2022-08-26T14:12:19.873Z,29.00
2022-08-26T14:14:49.037Z,29.00
2022-08-26T14:17:20.983Z,29.00
2022-08-26T14:19:50.234Z,29.00
2022-08-26T14:22:21.100Z,29.00
2022-08-26T14:24:49.464Z,29.00
2022-08-26T14:27:17.429Z,29.10
2022-08-26T14:29:45.206Z,29.10
2022-08-26T14:32:21.475Z,29.20
2022-08-26T14:34:50.398Z,29.30
2022-08-26T14:37:18.899Z,29.40
2022-08-26T14:39:47.184Z,29.40
2022-08-26T14:42:18.154Z,29.30
2022-08-26T14:44:49.550Z,29.40
2022-08-26T14:47:18.688Z,29.40
2022-08-26T14:49:46.452Z,29.40
2022-08-26T14:52:14.213Z,29.50
2022-08-26T14:54:41.053Z,29.70
2022-08-26T14:57:10.973Z,29.70
2022-08-26T14:59:40.821Z,29.70
2022-08-26T15:02:13.631Z,29.60
2022-08-26T15:04:43.116Z,29.50
2022-08-26T15:07:12.768Z,29.40
2022-08-26T15:09:40.865Z,29.30
2022-08-26T15:12:08.982Z,29.20
2022-08-26T15:14:36.742Z,29.00
2022-08-26T15:17:04.604Z,28.90
2022-08-26T15:19:32.390Z,28.70
2022-08-26T15:22:01.481Z,28.60
2022-08-26T15:24:29.939Z,28.60
2022-08-26T15:26:58.043Z,28.50
2022-08-26T15:29:25.838Z,28.40
2022-08-26T15:31:55.969Z,28.40
2022-08-26T15:34:25.438Z,28.30
2022-08-26T15:36:53.280Z,28.20
2022-08-26T15:39:22.424Z,28.20
2022-08-26T15:41:50.324Z,28.10
2022-08-26T15:44:18.409Z,28.00
2022-08-26T15:46:58.477Z,27.90
2022-08-26T15:49:27.367Z,27.70
2022-08-26T15:51:55.185Z,27.50
2022-08-26T15:54:24.717Z,27.30
2022-08-26T15:56:53.675Z,27.20
2022-08-26T15:59:23.404Z,27.10
2022-08-26T16:01:51.696Z,27.10
2022-08-26T16:04:20.150Z,27.00
2022-08-26T16:06:50.218Z,27.00
2022-08-26T16:09:18.751Z,26.90
2022-08-26T16:11:50.787Z,26.90
2022-08-26T16:14:18.630Z,27.00
2022-08-26T16:16:47.133Z,27.00
2022-08-26T16:19:15.419Z,27.00
2022-08-26T16:21:43.907Z,27.00
2022-08-26T16:24:12.595Z,27.10
2022-08-26T16:26:42.078Z,27.10
2022-08-26T16:29:13.800Z,27.10
2022-08-26T16:31:42.113Z,27.10
2022-08-26T16:34:10.884Z,27.10
2022-08-26T16:36:39.991Z,27.10
2022-08-26T16:39:09.176Z,27.20
2022-08-26T16:41:37.320Z,27.20
2022-08-26T16:44:06.407Z,27.20
2022-08-26T16:46:36.322Z,27.20
2022-08-26T16:49:04.635Z,27.20
2022-08-26T16:51:38.072Z,27.10
2022-08-26T16:54:08.129Z,27.10
2022-08-26T16:56:37.546Z,27.10
2022-08-26T16:59:07.305Z,27.10
2022-08-26T17:01:36.563Z,27.00
2022-08-26T17:04:05.124Z,26.90
2022-08-26T17:06:33.217Z,26.90
2022-08-26T17:09:01.065Z,26.90
2022-08-26T17:11:28.946Z,26.80
2022-08-26T17:13:56.965Z,26.80
2022-08-26T17:16:27.066Z,26.70
2022-08-26T17:18:57.840Z,26.40
2022-08-26T17:21:26.710Z,26.10
2022-08-26T17:23:56.251Z,25.80
2022-08-26T17:26:24.214Z,25.50
2022-08-26T17:28:52.557Z,25.20
2022-08-26T17:31:21.437Z,25.00
2022-08-26T17:33:53.967Z,24.80
2022-08-26T17:36:27.917Z,24.70
2022-08-26T17:38:56.743Z,24.60
2022-08-26T17:41:24.795Z,24.50
2022-08-26T17:43:52.586Z,24.50
2022-08-26T17:46:20.442Z,24.40
2022-08-26T17:48:48.674Z,24.40
2022-08-26T17:51:19.242Z,24.30
2022-08-26T17:53:48.909Z,24.20
2022-08-26T17:56:19.624Z,24.10
2022-08-26T17:58:51.085Z,24.10
2022-08-26T18:01:20.045Z,24.00
2022-08-26T18:03:48.081Z,23.90
2022-08-26T18:06:16.340Z,23.70
2022-08-26T18:08:44.844Z,23.50
2022-08-26T18:11:16.793Z,23.50
2022-08-26T18:13:47.346Z,23.40
2022-08-26T18:16:17.576Z,23.40
2022-08-26T18:18:46.439Z,23.30
2022-08-26T18:21:15.949Z,23.30
2022-08-26T18:23:44.106Z,23.30
2022-08-26T18:26:19.034Z,23.30
2022-08-26T18:28:46.880Z,23.20
2022-08-26T18:31:15.281Z,23.20
2022-08-26T18:33:43.992Z,23.20
2022-08-26T18:36:18.404Z,23.20
2022-08-26T18:38:46.534Z,23.20
2022-08-26T18:41:14.642Z,23.20
2022-08-26T18:43:44.197Z,23.20
2022-08-26T18:46:12.259Z,23.20
2022-08-26T18:48:41.779Z,23.10
2022-08-26T18:51:09.673Z,23.20
2022-08-26T18:53:41.950Z,23.10
2022-08-26T18:56:09.746Z,23.10
2022-08-26T18:58:37.518Z,23.00
2022-08-26T19:01:06.845Z,23.00
2022-08-26T19:03:34.905Z,23.00
2022-08-26T19:06:02.695Z,22.90
2022-08-26T19:08:30.474Z,22.90
2022-08-26T19:11:00.165Z,22.90
2022-08-26T19:13:28.125Z,22.80
2022-08-26T19:15:55.888Z,22.80
2022-08-26T19:18:25.217Z,22.80
2022-08-26T19:20:52.986Z,22.80
2022-08-26T19:23:31.511Z,22.80
2022-08-26T19:26:00.313Z,22.80
2022-08-26T19:28:28.153Z,22.70
2022-08-26T19:30:56.045Z,22.70
2022-08-26T19:33:26.734Z,22.70
2022-08-26T19:35:55.473Z,22.70
2022-08-26T19:38:24.025Z,22.60
2022-08-26T19:40:51.944Z,22.60
2022-08-26T19:43:19.732Z,22.60
2022-08-26T19:45:48.238Z,22.50
2022-08-26T19:48:15.979Z,22.50
2022-08-26T19:50:47.099Z,22.50
2022-08-26T19:53:15.340Z,22.50
2022-08-26T19:55:43.146Z,22.40
2022-08-26T19:58:11.725Z,22.30
2022-08-26T20:00:42.105Z,22.20
2022-08-26T20:03:10.623Z,22.20
2022-08-26T20:05:42.660Z,22.10
2022-08-26T20:08:22.287Z,22.00
2022-08-26T20:10:50.733Z,22.00
2022-08-26T20:13:19.132Z,22.00
2022-08-26T20:15:46.870Z,21.90
2022-08-26T20:18:28.849Z,21.90
2022-08-26T20:21:14.770Z,22.00
2022-08-26T20:23:44.459Z,22.00
2022-08-26T20:26:12.253Z,22.00
2022-08-26T20:28:40.137Z,21.90
2022-08-26T20:31:07.888Z,21.90
2022-08-26T20:33:44.391Z,21.90
2022-08-26T20:36:14.815Z,21.90
2022-08-26T20:38:45.107Z,21.90
2022-08-26T20:41:13.138Z,22.00
2022-08-26T20:43:42.772Z,22.00
2022-08-26T20:46:17.948Z,22.00
2022-08-26T20:48:46.917Z,22.00
2022-08-26T20:51:14.962Z,22.00
2022-08-26T20:53:44.308Z,22.00
2022-08-26T20:56:13.798Z,22.00
2022-08-26T20:58:41.912Z,22.10
2022-08-26T21:01:18.143Z,22.10
2022-08-26T21:03:46.187Z,22.10
2022-08-26T21:06:14.266Z,22.10
2022-08-26T21:08:43.245Z,22.10
2022-08-26T21:11:12.917Z,22.00
2022-08-26T21:14:01.596Z,22.00
2022-08-26T21:16:29.456Z,21.90
2022-08-26T21:18:57.624Z,21.90
2022-08-26T21:21:28.521Z,21.90
2022-08-26T21:23:57.183Z,21.90
2022-08-26T21:26:26.412Z,21.80
2022-08-26T21:28:54.244Z,21.80
2022-08-26T21:31:24.025Z,21.80
2022-08-26T21:33:52.335Z,21.80
2022-08-26T21:36:20.895Z,21.70
2022-08-26T21:38:48.778Z,21.70
2022-08-26T21:41:19.414Z,21.70
2022-08-26T21:43:50.203Z,21.70
2022-08-26T21:46:21.845Z,21.60
2022-08-26T21:48:51.651Z,21.60
2022-08-26T21:51:21.826Z,21.50
2022-08-26T21:53:50.084Z,21.50
2022-08-26T21:56:19.772Z,21.50
2022-08-26T21:58:49.606Z,21.50
2022-08-26T22:01:24.659Z,21.50
2022-08-26T22:03:53.461Z,21.50
2022-08-26T22:06:24.403Z,21.50
2022-08-26T22:08:52.749Z,21.50
2022-08-26T22:11:21.051Z,21.50
2022-08-26T22:13:50.538Z,21.50
2022-08-26T22:16:18.778Z,21.40
2022-08-26T22:18:47.000Z,21.50
2022-08-26T22:21:18.022Z,21.50
2022-08-26T22:23:46.548Z,21.50
2022-08-26T22:26:23.374Z,21.50
2022-08-26T22:28:58.718Z,21.40
2022-08-26T22:31:27.960Z,21.40
2022-08-26T22:34:06.751Z,21.50
2022-08-26T22:36:34.538Z,21.50
2022-08-26T22:39:02.321Z,21.50
2022-08-26T22:41:30.105Z,21.50
2022-08-26T22:44:03.836Z,21.40
2022-08-26T22:46:34.695Z,21.40
2022-08-26T22:49:04.424Z,21.40
2022-08-26T22:51:33.345Z,21.40
2022-08-26T22:54:01.394Z,21.40
2022-08-26T22:56:29.448Z,21.40
2022-08-26T22:58:57.218Z,21.30
2022-08-26T23:01:26.755Z,21.30
2022-08-26T23:03:54.626Z,21.30
2022-08-26T23:06:22.534Z,21.40
2022-08-26T23:08:50.357Z,21.50
2022-08-26T23:11:19.014Z,21.40
2022-08-26T23:13:46.792Z,21.30
2022-08-26T23:16:14.940Z,21.20
2022-08-26T23:18:44.254Z,21.20
2022-08-26T23:21:12.057Z,21.30
2022-08-26T23:23:39.870Z,21.30
2022-08-26T23:26:09.005Z,21.20
2022-08-26T23:28:39.561Z,21.20
2022-08-26T23:31:08.198Z,21.30
2022-08-26T23:33:50.026Z,21.20
2022-08-26T23:36:22.818Z,21.20
2022-08-26T23:38:53.087Z,21.10
2022-08-26T23:41:21.154Z,21.10
2022-08-26T23:43:48.950Z,21.10
2022-08-26T23:46:16.874Z,21.10
2022-08-26T23:48:44.816Z,21.10
2022-08-26T23:51:31.190Z,21.10
2022-08-26T23:54:00.317Z,21.00
2022-08-26T23:56:29.032Z,20.90
2022-08-26T23:58:57.462Z,21.00
